Hlavní strana
METAR-TAF:

METAR-TAF

Letiště :

Fairbanks, Aljaška, Spojené státy americké

zeměpisná šířka: 64-48-14N, zeměpisná délka: 147-52-34W, výška: 132 m

Aktuální stav počasí

Zpráva byla vytvořena před 28 minutami, v 15:53 UTC
Bezvětří
Teplota 10°C
Vlhkost vzduchu 76%
Tlak 1021 hPa
Viditelnost: 16.1 km
Skoro jasno ve výšce 5000 ft
Polojasno ve výšce 10000 ft
Polojasno ve výšce 20000 ft

METAR: PAFA 181553Z 00000KT 10SM FEW050 SCT100 SCT200 10/06 A3014 RMK AO2 SLP210 T01000061

Čas: 08:21 (16:21 UTC)

Předpověď počasí

Zpráva byla vytvořena před 4 hodinami a 38 minutami, v 11:43 UTC
Předpověď platná od 18 v 12 UTC do 19 v 18 UTC
vítr z různých směrů 3 kt
Viditelnost: 10 km
Skoro jasno ve výšce 5000 ft
Polojasno ve výšce 10000 ft
Polojasno ve výšce 20000 ft
Od 18 v 2100 UTC
Západojihozápadní vítr 5 kt
Viditelnost: 10 km
Oblačno až skoro zataženo ve výšce 10000 ft
Oblačno až skoro zataženo ve výšce 20000 ft

TAF: PAFA 181143Z 1812/1918 VRB03KT P6SM FEW050 SCT100 SCT200 FM182100 25005KT P6SM BKN100 BKN200

Stav a předpovědi počasí z více než 4 000 letišť (zprávy METAR a TAF).

Červené a žluté tečky na mapě představují dostupné meteorologické stanice.

Když kurzor umístíte na tečku, zobrazí se název stanice.

Pak kliknutím zobrazíte stav a předpověď počasí.

Chcete-li změnit mapu, kliknutím na zelené tlačítko se znaménkem +mapu přiblížíte, kliknutím na zelené tlačítko se znaménkem – mapu oddálíte a kliknutím na zelené šipky přejdete na sousední mapy.


METAR-TAF: